createdAt,value
2018-03-04T09:16:50.831Z,53.64
2018-03-04T09:19:18.905Z,51.83
2018-03-04T09:21:47.472Z,51.45
2018-03-04T09:24:15.196Z,51.04
2018-03-04T09:26:42.895Z,50.91
2018-03-04T09:29:10.672Z,51.36
2018-03-04T09:31:38.372Z,51.02
2018-03-04T09:34:07.034Z,50.81
2018-03-04T09:36:34.763Z,49.41
2018-03-04T09:39:02.665Z,48.78
2018-03-04T09:41:36.540Z,49.53
2018-03-04T09:44:04.217Z,49.11
2018-03-04T09:46:32.232Z,48.00
2018-03-04T09:48:59.941Z,48.10
2018-03-04T09:51:27.700Z,48.25
2018-03-04T09:53:55.405Z,47.43
2018-03-04T09:56:24.155Z,46.93
2018-03-04T09:58:51.952Z,46.83
2018-03-04T10:01:21.833Z,46.78
2018-03-04T10:03:50.058Z,46.45
2018-03-04T10:06:17.764Z,46.65
2018-03-04T10:08:48.146Z,47.37
2018-03-04T10:11:18.342Z,48.09
2018-03-04T10:13:49.057Z,47.34
2018-03-04T10:16:16.924Z,47.27
2018-03-04T10:18:58.751Z,47.29
2018-03-04T10:21:26.527Z,47.13
2018-03-04T10:23:54.231Z,47.60
2018-03-04T10:26:21.919Z,47.26
2018-03-04T10:28:49.713Z,47.42
2018-03-04T10:31:17.403Z,46.66
2018-03-04T10:33:45.336Z,47.00
2018-03-04T10:36:12.993Z,46.99
2018-03-04T10:38:40.762Z,46.65
2018-03-04T10:41:08.442Z,46.45
2018-03-04T10:43:36.243Z,46.75
2018-03-04T10:46:03.934Z,46.46
2018-03-04T10:48:31.724Z,45.80
2018-03-04T10:50:59.404Z,46.45
2018-03-04T10:53:28.171Z,46.81
2018-03-04T10:55:55.951Z,44.99
2018-03-04T10:58:23.720Z,45.71
2018-03-04T11:00:55.580Z,46.12
2018-03-04T11:03:23.431Z,45.79
2018-03-04T11:05:52.022Z,45.31
2018-03-04T11:08:19.691Z,45.48
2018-03-04T11:10:47.308Z,45.35
2018-03-04T11:13:14.999Z,45.08
2018-03-04T11:15:43.901Z,45.67
2018-03-04T11:18:13.844Z,44.73
2018-03-04T11:20:41.533Z,44.97
2018-03-04T11:23:09.467Z,44.84
2018-03-04T11:25:37.337Z,44.97
2018-03-04T11:28:05.047Z,45.27
2018-03-04T11:30:32.734Z,44.44
2018-03-04T11:33:00.343Z,45.35
2018-03-04T11:35:27.936Z,44.63
2018-03-04T11:37:55.554Z,44.73
2018-03-04T11:40:23.393Z,44.31
2018-03-04T11:42:51.089Z,44.71
2018-03-04T11:45:18.786Z,44.05
2018-03-04T11:47:46.408Z,44.09
2018-03-04T11:50:14.145Z,44.27
2018-03-04T11:52:41.877Z,43.97
2018-03-04T11:55:09.782Z,44.08
2018-03-04T11:57:37.464Z,43.61
2018-03-04T12:00:05.088Z,43.79
2018-03-04T12:02:32.677Z,43.75
2018-03-04T12:05:00.277Z,43.17
2018-03-04T12:07:27.954Z,42.86
2018-03-04T12:09:55.581Z,43.12
2018-03-04T12:12:23.276Z,44.05
2018-03-04T12:14:51.000Z,43.71
2018-03-04T12:17:18.803Z,43.60
2018-03-04T12:19:46.441Z,43.29
2018-03-04T12:22:14.060Z,42.93
2018-03-04T12:24:41.651Z,42.47
2018-03-04T12:27:09.357Z,42.13
2018-03-04T12:29:36.979Z,42.76
2018-03-04T12:32:04.610Z,42.25
2018-03-04T12:34:32.356Z,42.54
2018-03-04T12:36:59.967Z,42.48
2018-03-04T12:39:27.593Z,42.05
2018-03-04T12:41:55.188Z,42.30
2018-03-04T12:44:22.804Z,41.98
2018-03-04T12:46:50.379Z,41.92
2018-03-04T12:49:18.005Z,41.78
2018-03-04T12:51:45.922Z,41.54
2018-03-04T12:54:13.586Z,41.21
2018-03-04T12:56:41.175Z,41.51
2018-03-04T12:59:08.761Z,40.86
2018-03-04T13:01:36.375Z,41.33
2018-03-04T13:04:03.955Z,41.18
2018-03-04T13:06:31.562Z,41.21
2018-03-04T13:08:59.347Z,41.35
2018-03-04T13:11:27.704Z,41.56
2018-03-04T13:13:55.287Z,41.16
2018-03-04T13:16:22.864Z,41.34
2018-03-04T13:18:50.439Z,41.11
2018-03-04T13:21:18.016Z,40.08
2018-03-04T13:23:45.591Z,40.60
2018-03-04T13:26:13.374Z,40.85
2018-03-04T13:28:40.949Z,40.35
2018-03-04T13:31:08.524Z,40.94
2018-03-04T13:33:36.112Z,41.09
2018-03-04T13:36:03.694Z,40.30
2018-03-04T13:38:31.276Z,40.21
2018-03-04T13:40:58.904Z,40.99
2018-03-04T13:43:26.484Z,40.74
2018-03-04T13:45:54.099Z,40.68
2018-03-04T13:48:21.676Z,40.62
2018-03-04T13:50:49.291Z,40.77
2018-03-04T13:53:16.872Z,41.12
2018-03-04T13:55:44.482Z,41.49
2018-03-04T13:58:12.070Z,40.92
2018-03-04T14:00:39.649Z,40.74
2018-03-04T14:03:07.587Z,40.40
2018-03-04T14:05:35.226Z,40.77
2018-03-04T14:08:02.807Z,40.23
2018-03-04T14:10:30.396Z,40.39
2018-03-04T14:12:57.976Z,39.90
2018-03-04T14:15:25.563Z,40.42
2018-03-04T14:17:53.227Z,40.15
2018-03-04T14:20:20.802Z,40.12
2018-03-04T14:22:48.383Z,39.71
2018-03-04T14:25:16.240Z,39.67
2018-03-04T14:27:43.863Z,40.57
2018-03-04T14:30:11.447Z,40.41
2018-03-04T14:32:39.027Z,40.31
2018-03-04T14:35:06.608Z,40.71
2018-03-04T14:37:34.247Z,40.72
2018-03-04T14:40:02.602Z,40.73
2018-03-04T14:42:30.272Z,40.95
2018-03-04T14:44:57.848Z,41.26
2018-03-04T14:47:25.471Z,41.01
2018-03-04T14:52:24.063Z,40.24
2018-03-04T14:54:51.639Z,40.11
2018-03-04T14:57:19.327Z,40.45
2018-03-04T14:59:46.908Z,40.86
2018-03-04T15:02:14.507Z,41.59
2018-03-04T15:04:42.092Z,41.11
2018-03-04T15:07:09.687Z,40.58
2018-03-04T15:09:37.267Z,40.95
2018-03-04T15:12:04.847Z,41.13
2018-03-04T15:14:32.430Z,41.08
2018-03-04T15:17:00.067Z,41.76
2018-03-04T15:19:27.856Z,41.46
2018-03-04T15:21:55.437Z,41.75
2018-03-04T15:24:23.015Z,40.50
2018-03-04T15:26:50.588Z,40.17
2018-03-04T15:29:18.176Z,38.73
2018-03-04T15:31:45.790Z,39.70
2018-03-04T15:34:13.366Z,39.11
2018-03-04T15:36:40.982Z,39.11
2018-03-04T15:39:08.564Z,39.59
2018-03-04T15:41:36.147Z,40.19
2018-03-04T15:44:03.796Z,39.84
2018-03-04T15:46:31.383Z,39.91
2018-03-04T15:48:58.964Z,40.20
2018-03-04T15:51:26.547Z,41.36
2018-03-04T15:53:54.134Z,41.13
2018-03-04T15:56:21.919Z,41.31
2018-03-04T15:58:49.519Z,42.66
2018-03-04T16:01:17.103Z,42.38
2018-03-04T16:03:44.688Z,42.45
2018-03-04T16:06:12.270Z,42.50
2018-03-04T16:08:39.866Z,42.49
2018-03-04T16:11:07.452Z,42.34
2018-03-04T16:13:35.062Z,42.64
2018-03-04T16:16:03.223Z,42.75
2018-03-04T16:18:30.800Z,43.12
2018-03-04T16:20:58.423Z,43.13
2018-03-04T16:23:26.008Z,43.54
2018-03-04T16:25:53.654Z,43.96
2018-03-04T16:28:21.240Z,44.08
2018-03-04T16:30:48.829Z,44.43
2018-03-04T16:33:16.407Z,44.09
2018-03-04T16:35:43.993Z,45.46
2018-03-04T16:38:11.575Z,43.93
2018-03-04T16:40:39.188Z,44.32
2018-03-04T16:43:06.785Z,45.21
2018-03-04T16:45:34.367Z,44.45
2018-03-04T16:48:02.080Z,44.58
2018-03-04T16:50:29.768Z,44.93
2018-03-04T16:52:57.422Z,44.99
2018-03-04T16:55:25.010Z,43.86
2018-03-04T16:57:52.708Z,44.02
2018-03-04T17:00:20.323Z,45.36
2018-03-04T17:02:48.425Z,44.69
2018-03-04T17:05:16.227Z,44.23
2018-03-04T17:07:43.817Z,44.50
2018-03-04T17:10:11.408Z,44.88
2018-03-04T17:12:39.847Z,44.92
2018-03-04T17:15:07.940Z,46.33
2018-03-04T17:17:35.528Z,46.10
2018-03-04T17:20:03.172Z,45.90
2018-03-04T17:22:30.763Z,46.19
2018-03-04T17:24:58.352Z,45.80
2018-03-04T17:27:25.945Z,46.52
2018-03-04T17:29:53.536Z,46.48
2018-03-04T17:32:21.133Z,46.57
2018-03-04T17:34:48.730Z,47.68
2018-03-04T17:37:16.363Z,47.28
2018-03-04T17:39:43.956Z,48.69
2018-03-04T17:42:11.618Z,47.63
2018-03-04T17:44:39.384Z,47.73
2018-03-04T17:47:06.972Z,47.24
2018-03-04T17:49:34.569Z,48.54
2018-03-04T17:52:02.156Z,47.28
2018-03-04T17:54:29.749Z,48.00
2018-03-04T17:56:57.393Z,47.04
2018-03-04T17:59:24.991Z,48.23
2018-03-04T18:01:52.618Z,47.58
2018-03-04T18:04:20.252Z,47.72
2018-03-04T18:06:47.844Z,48.45
2018-03-04T18:09:15.448Z,48.98
2018-03-04T18:11:43.047Z,49.19
2018-03-04T18:14:10.660Z,48.39
2018-03-04T18:16:38.253Z,48.90
2018-03-04T18:19:05.857Z,49.29
2018-03-04T18:21:33.573Z,49.09
2018-03-04T18:24:01.184Z,49.70
2018-03-04T18:26:28.781Z,49.27
2018-03-04T18:28:56.407Z,49.35
2018-03-04T18:31:24.409Z,49.17
2018-03-04T18:33:52.031Z,49.57
2018-03-04T18:36:20.252Z,50.03
2018-03-04T18:38:47.876Z,49.28
2018-03-04T18:41:15.468Z,49.73
2018-03-04T18:43:43.096Z,50.28
2018-03-04T18:46:10.702Z,51.33
2018-03-04T18:48:38.299Z,50.50
2018-03-04T18:51:05.897Z,51.05
2018-03-04T18:53:33.547Z,51.74
2018-03-04T18:56:01.148Z,51.66
2018-03-04T18:58:28.766Z,52.16
2018-03-04T19:00:56.588Z,51.99
2018-03-04T19:03:24.271Z,52.27
2018-03-04T19:05:51.855Z,52.43
2018-03-04T19:08:19.444Z,52.35
2018-03-04T19:10:47.089Z,52.12
2018-03-04T19:13:14.675Z,52.45
2018-03-04T19:15:42.305Z,51.98
2018-03-04T19:18:09.972Z,52.49
2018-03-04T19:20:37.560Z,52.80
2018-03-04T19:23:05.146Z,52.68
2018-03-04T19:25:32.742Z,53.51
2018-03-04T19:28:01.188Z,51.90
2018-03-04T19:30:28.780Z,52.09
2018-03-04T19:32:56.414Z,51.77
2018-03-04T19:35:24.008Z,51.84
2018-03-04T19:37:51.731Z,52.74
2018-03-04T19:40:19.348Z,51.61
2018-03-04T19:42:47.723Z,51.84
2018-03-04T19:45:15.818Z,51.06
2018-03-04T19:47:43.493Z,52.34
2018-03-04T19:50:13.451Z,52.56
2018-03-04T19:52:43.505Z,52.51
2018-03-04T19:55:15.491Z,52.30
2018-03-04T19:57:46.529Z,52.49
2018-03-04T20:00:15.899Z,52.94
2018-03-04T20:02:45.504Z,53.11
2018-03-04T20:05:13.916Z,53.45
2018-03-04T20:07:42.847Z,54.27
2018-03-04T20:10:11.299Z,54.59
2018-03-04T20:12:39.019Z,54.28
2018-03-04T20:15:06.747Z,54.84
2018-03-04T20:17:34.340Z,54.56
2018-03-04T20:20:01.972Z,54.61
2018-03-04T20:22:29.638Z,54.17
2018-03-04T20:24:57.228Z,54.20
2018-03-04T20:27:24.823Z,54.41
2018-03-04T20:29:52.504Z,53.56
2018-03-04T20:32:20.100Z,54.06
2018-03-04T20:34:47.698Z,53.31
2018-03-04T20:37:15.380Z,53.44
2018-03-04T20:39:43.021Z,53.80
2018-03-04T20:42:10.608Z,53.86
2018-03-04T20:44:38.281Z,54.16
2018-03-04T20:47:05.882Z,53.92
2018-03-04T20:49:33.472Z,53.68
2018-03-04T20:52:01.099Z,54.23
2018-03-04T20:54:28.695Z,54.63
2018-03-04T20:56:56.415Z,53.73
2018-03-04T20:59:24.007Z,54.05
2018-03-04T21:01:51.592Z,54.90
2018-03-04T21:04:19.179Z,54.52
2018-03-04T21:06:46.787Z,55.42
2018-03-04T21:09:14.376Z,54.33
2018-03-04T21:11:41.959Z,54.35
2018-03-04T21:14:09.546Z,54.62
2018-03-04T21:16:37.137Z,54.47
2018-03-04T21:19:04.820Z,54.84
2018-03-04T21:21:32.548Z,53.70
2018-03-04T21:24:00.154Z,54.56
2018-03-04T21:26:27.739Z,54.27
2018-03-04T21:28:55.336Z,54.13
2018-03-04T21:31:26.816Z,54.27
2018-03-04T21:34:19.617Z,53.94
2018-03-04T21:36:47.252Z,53.59
2018-03-04T21:39:15.823Z,54.21
2018-03-04T21:41:43.490Z,54.03
2018-03-04T21:44:11.330Z,53.97
2018-03-04T21:46:38.952Z,54.33
2018-03-04T21:49:06.575Z,54.70
2018-03-04T21:51:34.163Z,54.50
2018-03-04T21:54:01.756Z,54.96
2018-03-04T21:56:29.346Z,56.37
2018-03-04T21:58:56.935Z,55.96
2018-03-04T22:01:24.534Z,56.54
2018-03-04T22:03:52.120Z,55.84
2018-03-04T22:06:19.706Z,56.12
2018-03-04T22:08:47.296Z,56.23
2018-03-04T22:11:14.891Z,56.58
2018-03-04T22:13:42.484Z,57.06
2018-03-04T22:16:10.083Z,57.45
2018-03-04T22:18:37.672Z,57.72
2018-03-04T22:21:05.258Z,57.10
2018-03-04T22:23:32.833Z,56.46
2018-03-04T22:26:00.414Z,57.34
2018-03-04T22:28:28.013Z,56.63
2018-03-04T22:30:55.595Z,57.15
2018-03-04T22:33:23.178Z,56.76
2018-03-04T22:35:50.759Z,56.06
2018-03-04T22:38:18.355Z,56.31
2018-03-04T22:40:45.937Z,56.48
2018-03-04T22:43:13.567Z,56.51
2018-03-04T22:45:41.151Z,56.44
2018-03-04T22:48:08.784Z,57.88
2018-03-04T22:50:37.331Z,57.24
2018-03-04T22:53:04.921Z,57.40
2018-03-04T22:55:32.508Z,56.96
2018-03-04T22:58:00.094Z,57.93
2018-03-04T23:00:27.679Z,57.58
2018-03-04T23:02:55.331Z,58.29
2018-03-04T23:05:22.894Z,57.50
2018-03-04T23:07:50.476Z,57.11
2018-03-04T23:10:18.061Z,57.09
2018-03-04T23:12:45.641Z,57.95
2018-03-04T23:15:13.224Z,57.33
2018-03-04T23:17:40.808Z,57.41
2018-03-04T23:20:08.394Z,57.86
2018-03-04T23:22:36.021Z,57.35
2018-03-04T23:25:03.623Z,59.20
2018-03-04T23:27:32.182Z,58.20
2018-03-04T23:29:59.767Z,57.81
2018-03-04T23:32:27.358Z,57.92
2018-03-04T23:34:54.949Z,59.13
2018-03-04T23:37:22.528Z,58.45
2018-03-04T23:39:50.116Z,58.61
2018-03-04T23:42:17.703Z,59.27
2018-03-04T23:44:45.295Z,58.62
2018-03-04T23:47:13.887Z,59.75
2018-03-04T23:49:41.468Z,59.18
2018-03-04T23:52:09.056Z,57.94
2018-03-04T23:54:36.643Z,58.53
2018-03-04T23:57:04.226Z,58.50
2018-03-04T23:59:31.816Z,57.39
